Time;durP1;ratioP1;P1;durP2;ratioP2;P2;SDS_P1;SDS_P2;PMS_P1;PMS_P2;Temp;Humidity;BMP_temperature;BMP_pressure;BME280_temperature;BME280_humidity;BME280_pressure;Samples;Min_cycle;Max_cycle;Signal;HPM_P1;HPM_P2
2024/02/16 00:02:32;;;;;;;52.97;20.55;;;;;;;;;;5039605;28;20032;-72
2024/02/16 00:05:18;;;;;;;45.33;19.63;;;;;;;;;;5052609;28;20024;-72
2024/02/16 00:08:05;;;;;;;54.35;21.85;;;;;;;;;;5035975;28;20025;-72
2024/02/16 00:10:50;;;;;;;51.83;18.98;;;;;;;;;;5051906;28;20409;-72
2024/02/16 00:13:37;;;;;;;51.03;19.52;;;;;;;;;;5060319;28;20025;-72
2024/02/16 00:16:22;;;;;;;52.22;19.17;;;;;;;;;;5053009;28;20032;-72
2024/02/16 00:19:08;;;;;;;45.75;17.92;;;;;;;;;;5056806;28;20021;-72
2024/02/16 00:21:54;;;;;;;40.03;15.20;;;;;;;;;;5053726;28;20620;-73
2024/02/16 00:24:39;;;;;;;52.05;17.80;;;;;;;;;;5048358;28;20129;-72
2024/02/16 00:27:25;;;;;;;46.28;18.38;;;;;;;;;;5053864;28;20078;-73
2024/02/16 00:30:11;;;;;;;51.15;17.05;;;;;;;;;;5052736;28;20029;-72
2024/02/16 00:32:56;;;;;;;54.47;21.58;;;;;;;;;;5053680;28;20440;-72
2024/02/16 00:35:42;;;;;;;50.83;20.08;;;;;;;;;;5057686;28;20064;-72
2024/02/16 00:38:28;;;;;;;55.60;20.92;;;;;;;;;;5052603;28;20025;-72
2024/02/16 00:41:18;;;;;;;51.45;17.73;;;;;;;;;;5054294;28;20017;-73
2024/02/16 00:44:04;;;;;;;49.78;18.88;;;;;;;;;;5052112;28;20020;-72
2024/02/16 00:46:50;;;;;;;54.67;19.38;;;;;;;;;;5038951;28;20032;-72
2024/02/16 00:49:35;;;;;;;44.88;17.83;;;;;;;;;;5038835;28;20028;-73
2024/02/16 00:52:22;;;;;;;48.45;18.35;;;;;;;;;;5052347;28;20025;-72
2024/02/16 00:55:08;;;;;;;47.83;18.90;;;;;;;;;;5039255;28;20111;-72
2024/02/16 00:57:56;;;;;;;44.40;17.25;;;;;;;;;;5055221;28;20120;-72
2024/02/16 01:00:43;;;;;;;36.20;15.02;;;;;;;;;;5052052;28;20025;-72
2024/02/16 01:03:29;;;;;;;44.00;16.25;;;;;;;;;;5054878;28;20089;-72
2024/02/16 01:06:14;;;;;;;34.65;15.02;;;;;;;;;;5075338;28;20032;-72
2024/02/16 01:09:03;;;;;;;37.08;14.77;;;;;;;;;;5035863;28;20026;-72
2024/02/16 01:11:49;;;;;;;35.70;16.33;;;;;;;;;;5038020;28;20029;-73
2024/02/16 01:14:34;;;;;;;30.42;14.15;;;;;;;;;;5056315;28;20029;-72
2024/02/16 01:17:20;;;;;;;37.13;14.30;;;;;;;;;;5056036;28;20524;-72
2024/02/16 01:20:10;;;;;;;31.50;12.95;;;;;;;;;;5068278;28;20393;-72
2024/02/16 01:22:55;;;;;;;36.78;13.23;;;;;;;;;;5064098;28;20039;-72
2024/02/16 01:25:42;;;;;;;42.72;14.23;;;;;;;;;;5075058;28;20023;-72
2024/02/16 01:28:27;;;;;;;35.38;14.88;;;;;;;;;;5063636;28;20024;-72
2024/02/16 01:31:13;;;;;;;36.75;16.45;;;;;;;;;;5058911;28;20509;-72
2024/02/16 01:33:59;;;;;;;39.65;13.77;;;;;;;;;;5038572;28;20036;-72
2024/02/16 01:36:44;;;;;;;35.35;14.55;;;;;;;;;;5067432;28;20021;-72
2024/02/16 01:39:30;;;;;;;33.42;13.60;;;;;;;;;;5056485;28;20021;-72
2024/02/16 01:42:15;;;;;;;31.73;14.10;;;;;;;;;;5043531;28;20021;-72
2024/02/16 01:45:01;;;;;;;31.30;12.45;;;;;;;;;;5057668;28;20040;-72
2024/02/16 01:47:51;;;;;;;33.75;13.65;;;;;;;;;;5067465;28;20017;-72
2024/02/16 01:50:36;;;;;;;31.42;12.45;;;;;;;;;;5055380;28;20514;-72
2024/02/16 01:53:22;;;;;;;30.08;12.35;;;;;;;;;;5056677;28;20036;-72
2024/02/16 01:56:08;;;;;;;30.65;13.02;;;;;;;;;;5042068;28;20025;-72
2024/02/16 01:58:53;;;;;;;30.65;13.73;;;;;;;;;;5060800;28;20029;-72
2024/02/16 02:01:39;;;;;;;28.80;12.95;;;;;;;;;;5056710;28;20091;-72
2024/02/16 02:04:26;;;;;;;28.08;11.73;;;;;;;;;;5066353;28;20024;-72
2024/02/16 02:07:15;;;;;;;31.15;11.93;;;;;;;;;;5035781;28;20025;-72
2024/02/16 02:10:01;;;;;;;27.58;11.85;;;;;;;;;;5072989;28;20100;-72
2024/02/16 02:12:46;;;;;;;23.23;11.35;;;;;;;;;;5056999;28;20119;-72
2024/02/16 02:15:32;;;;;;;26.35;12.55;;;;;;;;;;5058934;28;20394;-72
2024/02/16 02:18:18;;;;;;;24.95;11.77;;;;;;;;;;5055678;28;20027;-72
2024/02/16 02:21:04;;;;;;;24.98;11.65;;;;;;;;;;5068694;28;20499;-72
2024/02/16 02:23:50;;;;;;;21.25;10.35;;;;;;;;;;5050406;28;20032;-72
2024/02/16 02:26:35;;;;;;;25.38;11.73;;;;;;;;;;5072834;28;20032;-73
2024/02/16 02:29:21;;;;;;;30.70;11.40;;;;;;;;;;5057429;28;20379;-72
2024/02/16 02:32:08;;;;;;;29.33;11.65;;;;;;;;;;5068771;28;20025;-72
2024/02/16 02:34:54;;;;;;;27.45;11.32;;;;;;;;;;5043831;28;20037;-72
2024/02/16 02:37:40;;;;;;;27.42;11.15;;;;;;;;;;5055473;28;20027;-72
2024/02/16 02:40:26;;;;;;;25.92;10.90;;;;;;;;;;5041319;28;20056;-72
2024/02/16 02:43:14;;;;;;;20.95;9.95;;;;;;;;;;5056638;28;20394;-72
2024/02/16 02:46:00;;;;;;;23.80;10.57;;;;;;;;;;5054158;28;20028;-72
2024/02/16 02:48:46;;;;;;;23.70;10.82;;;;;;;;;;5055152;28;20033;-72
2024/02/16 02:51:31;;;;;;;25.83;10.63;;;;;;;;;;5039014;28;20052;-72
2024/02/16 02:54:17;;;;;;;23.48;9.88;;;;;;;;;;5054897;28;20493;-72
2024/02/16 02:57:03;;;;;;;25.38;10.32;;;;;;;;;;5055551;28;20067;-72
2024/02/16 02:59:49;;;;;;;25.75;9.88;;;;;;;;;;5040164;28;20035;-72
2024/02/16 03:02:38;;;;;;;22.92;9.43;;;;;;;;;;5055641;28;20029;-72
2024/02/16 03:05:24;;;;;;;24.00;11.05;;;;;;;;;;5055751;28;20110;-72
2024/02/16 03:08:10;;;;;;;21.67;10.27;;;;;;;;;;5054295;28;20410;-72
2024/02/16 03:10:56;;;;;;;21.23;9.93;;;;;;;;;;5053126;28;20024;-72
2024/02/16 03:13:42;;;;;;;21.25;10.18;;;;;;;;;;5054657;28;20491;-72
2024/02/16 03:16:28;;;;;;;24.67;8.80;;;;;;;;;;5055300;28;20059;-72
2024/02/16 03:19:14;;;;;;;18.00;9.38;;;;;;;;;;5054799;28;20032;-72
2024/02/16 03:22:00;;;;;;;22.33;8.82;;;;;;;;;;5053550;28;20028;-72
2024/02/16 03:24:45;;;;;;;17.42;9.13;;;;;;;;;;5054507;28;20122;-72
2024/02/16 03:27:31;;;;;;;18.25;10.48;;;;;;;;;;5053460;28;20021;-72
2024/02/16 03:30:17;;;;;;;26.30;9.13;;;;;;;;;;5054502;28;20032;-72
2024/02/16 03:33:02;;;;;;;21.77;10.05;;;;;;;;;;5054400;28;20469;-72
2024/02/16 03:35:48;;;;;;;21.58;9.93;;;;;;;;;;5054166;28;20033;-72
2024/02/16 03:38:34;;;;;;;21.25;10.20;;;;;;;;;;5053262;28;20429;-72
2024/02/16 03:41:21;;;;;;;17.92;8.70;;;;;;;;;;5051701;28;20024;-72
2024/02/16 03:44:06;;;;;;;15.50;8.18;;;;;;;;;;5037875;28;20028;-72
2024/02/16 03:46:52;;;;;;;18.77;8.93;;;;;;;;;;5034883;28;20057;-72
2024/02/16 03:49:39;;;;;;;18.63;8.55;;;;;;;;;;5035147;28;20113;-72
2024/02/16 03:52:24;;;;;;;16.60;9.32;;;;;;;;;;5038888;28;20029;-72
2024/02/16 03:55:10;;;;;;;16.15;8.07;;;;;;;;;;5054035;28;20032;-72
2024/02/16 03:57:56;;;;;;;15.48;8.38;;;;;;;;;;5053840;28;20016;-72
2024/02/16 04:00:41;;;;;;;18.98;8.80;;;;;;;;;;5054690;28;20118;-72
2024/02/16 04:03:30;;;;;;;24.23;8.82;;;;;;;;;;5053632;28;20053;-72
2024/02/16 04:06:15;;;;;;;15.73;7.68;;;;;;;;;;5052462;28;20024;-71
2024/02/16 04:09:01;;;;;;;19.25;8.05;;;;;;;;;;5052310;28;20036;-72
2024/02/16 04:11:47;;;;;;;25.45;8.60;;;;;;;;;;5054905;28;20390;-72
2024/02/16 04:14:35;;;;;;;20.00;8.30;;;;;;;;;;5053008;28;20017;-72
2024/02/16 04:17:21;;;;;;;17.02;8.43;;;;;;;;;;5052656;28;20112;-72
2024/02/16 04:20:08;;;;;;;20.13;8.38;;;;;;;;;;5053505;28;20017;-72
2024/02/16 04:22:53;;;;;;;18.48;8.65;;;;;;;;;;5052995;28;20045;-72
2024/02/16 04:25:44;;;;;;;19.35;8.40;;;;;;;;;;5053272;28;20021;-72
2024/02/16 04:28:30;;;;;;;17.20;8.85;;;;;;;;;;5053572;28;20486;-72
2024/02/16 04:31:15;;;;;;;14.13;8.07;;;;;;;;;;5052825;28;20051;-72
2024/02/16 04:34:01;;;;;;;17.13;8.07;;;;;;;;;;5053696;28;20021;-72
2024/02/16 04:36:53;;;;;;;14.52;6.95;;;;;;;;;;5039896;28;20056;-72
2024/02/16 04:39:39;;;;;;;15.80;7.38;;;;;;;;;;5037741;28;20043;-72
2024/02/16 04:42:25;;;;;;;13.55;8.07;;;;;;;;;;5038971;28;20082;-72
2024/02/16 04:45:12;;;;;;;17.48;7.72;;;;;;;;;;5053883;28;20505;-72
2024/02/16 04:48:02;;;;;;;15.25;7.57;;;;;;;;;;5053551;28;20025;-72
2024/02/16 04:50:48;;;;;;;;;;;;;;;;;;5053849;28;20032;-72
2024/02/16 04:53:33;;;;;;;16.58;7.07;;;;;;;;;;5051998;28;19927;-72
2024/02/16 04:56:20;;;;;;;14.55;8.45;;;;;;;;;;5053388;28;20029;-72
2024/02/16 04:59:06;;;;;;;12.40;7.25;;;;;;;;;;5053783;28;20021;-72
2024/02/16 05:01:52;;;;;;;15.95;7.32;;;;;;;;;;5052421;28;20025;-72
2024/02/16 05:04:37;;;;;;;15.05;7.10;;;;;;;;;;5037931;28;20106;-72
2024/02/16 05:07:23;;;;;;;13.63;6.80;;;;;;;;;;5053213;28;20032;-72
2024/02/16 05:10:11;;;;;;;13.52;7.00;;;;;;;;;;5053694;28;20541;-72
2024/02/16 05:12:58;;;;;;;15.88;6.85;;;;;;;;;;5053075;28;20025;-72
2024/02/16 05:15:43;;;;;;;17.23;7.47;;;;;;;;;;5052932;28;20024;-72
2024/02/16 05:18:29;;;;;;;23.95;8.30;;;;;;;;;;5052501;28;20608;-72
2024/02/16 05:21:16;;;;;;;16.30;8.15;;;;;;;;;;5036024;28;20037;-72
2024/02/16 05:24:02;;;;;;;16.38;6.72;;;;;;;;;;5019207;28;20108;-72
2024/02/16 05:26:48;;;;;;;12.38;6.85;;;;;;;;;;5033248;28;20028;-72
2024/02/16 05:29:33;;;;;;;16.92;7.20;;;;;;;;;;5053036;28;20032;-72
2024/02/16 05:32:19;;;;;;;14.05;7.30;;;;;;;;;;5036663;28;20020;-72
2024/02/16 05:35:12;;;;;;;17.35;6.85;;;;;;;;;;5051937;28;20127;-72
2024/02/16 05:38:00;;;;;;;18.15;7.78;;;;;;;;;;5053068;28;20163;-72
2024/02/16 05:40:56;;;;;;;14.13;6.88;;;;;;;;;;5037830;28;20450;-72
2024/02/16 05:43:43;;;;;;;12.20;6.72;;;;;;;;;;5051047;28;20528;-72
2024/02/16 05:46:29;;;;;;;10.60;6.40;;;;;;;;;;5024103;28;20105;-72
2024/02/16 05:49:16;;;;;;;12.18;6.53;;;;;;;;;;5053224;28;20024;-72
2024/02/16 05:52:17;;;;;;;13.43;6.88;;;;;;;;;;5039974;28;20390;-72
2024/02/16 05:55:04;;;;;;;12.85;7.50;;;;;;;;;;5056950;28;20398;-72
2024/02/16 05:57:49;;;;;;;14.43;7.15;;;;;;;;;;5055165;28;20487;-72
2024/02/16 06:00:35;;;;;;;14.27;6.78;;;;;;;;;;5056230;28;20083;-72
2024/02/16 06:03:21;;;;;;;16.20;7.65;;;;;;;;;;5056431;28;20029;-72
2024/02/16 06:06:08;;;;;;;12.93;5.90;;;;;;;;;;5055338;28;20394;-72
2024/02/16 06:08:53;;;;;;;12.20;6.93;;;;;;;;;;5055887;28;20021;-72
2024/02/16 06:11:39;;;;;;;13.02;7.22;;;;;;;;;;5055717;28;20067;-72
2024/02/16 06:14:24;;;;;;;13.48;5.63;;;;;;;;;;5035903;28;20029;-72
2024/02/16 06:17:10;;;;;;;10.32;5.90;;;;;;;;;;5050306;28;20025;-72
2024/02/16 06:19:56;;;;;;;13.13;6.15;;;;;;;;;;5053901;28;20486;-72
2024/02/16 06:22:42;;;;;;;9.73;5.28;;;;;;;;;;5053954;28;20110;-72
2024/02/16 06:25:27;;;;;;;14.18;6.25;;;;;;;;;;5041708;28;20032;-72
2024/02/16 06:28:13;;;;;;;14.93;5.90;;;;;;;;;;5056581;28;20025;-72
2024/02/16 06:31:02;;;;;;;13.38;5.57;;;;;;;;;;5056613;28;20033;-72
2024/02/16 06:33:47;;;;;;;11.52;5.15;;;;;;;;;;5054843;28;20036;-73
2024/02/16 06:36:34;;;;;;;12.45;6.35;;;;;;;;;;5053807;28;20402;-72
2024/02/16 06:39:19;;;;;;;14.95;5.72;;;;;;;;;;5054176;28;20025;-72
2024/02/16 06:42:08;;;;;;;13.38;5.97;;;;;;;;;;5041981;28;20029;-72
2024/02/16 06:44:54;;;;;;;11.70;5.60;;;;;;;;;;5054536;28;20104;-72
2024/02/16 06:47:39;;;;;;;14.07;5.93;;;;;;;;;;5054814;28;20104;-72
2024/02/16 06:50:25;;;;;;;11.82;5.80;;;;;;;;;;5055217;28;20069;-73
2024/02/16 06:53:13;;;;;;;10.95;5.07;;;;;;;;;;5055825;28;20041;-72
2024/02/16 06:55:59;;;;;;;12.32;5.38;;;;;;;;;;5052752;28;20021;-72
2024/02/16 06:58:45;;;;;;;7.80;5.43;;;;;;;;;;5055051;28;20052;-72
2024/02/16 07:01:31;;;;;;;7.18;4.68;;;;;;;;;;5040181;28;20032;-72
2024/02/16 07:04:20;;;;;;;10.23;5.05;;;;;;;;;;5051146;28;20500;-72
2024/02/16 07:07:06;;;;;;;8.65;4.72;;;;;;;;;;5039976;28;20025;-72
2024/02/16 07:09:52;;;;;;;7.75;4.40;;;;;;;;;;5053590;28;20082;-72
2024/02/16 07:12:37;;;;;;;11.43;5.50;;;;;;;;;;5053895;28;20063;-72
2024/02/16 07:15:23;;;;;;;6.03;3.95;;;;;;;;;;5036441;28;20026;-72
2024/02/16 07:18:09;;;;;;;8.68;4.80;;;;;;;;;;5034741;28;20025;-72
2024/02/16 07:20:55;;;;;;;10.07;4.10;;;;;;;;;;5040165;28;20082;-72
2024/02/16 07:23:40;;;;;;;8.02;4.32;;;;;;;;;;5053448;28;20064;-72
2024/02/16 07:26:26;;;;;;;8.85;4.63;;;;;;;;;;5039689;28;20021;-71
2024/02/16 07:29:16;;;;;;;7.63;4.57;;;;;;;;;;5054350;28;20025;-72
2024/02/16 07:32:03;;;;;;;9.75;4.00;;;;;;;;;;5053537;28;20021;-71
2024/02/16 07:34:49;;;;;;;14.02;6.00;;;;;;;;;;5053016;28;20079;-74
2024/02/16 07:37:34;;;;;;;7.07;3.60;;;;;;;;;;5053586;28;20033;-73
2024/02/16 07:40:20;;;;;;;7.18;4.25;;;;;;;;;;5039975;28;20032;-73
2024/02/16 07:43:06;;;;;;;9.23;3.55;;;;;;;;;;5052998;28;20494;-73
2024/02/16 07:45:54;;;;;;;6.20;4.10;;;;;;;;;;5039858;28;20031;-72
2024/02/16 07:48:40;;;;;;;10.75;4.40;;;;;;;;;;5054753;28;20116;-73
2024/02/16 07:51:25;;;;;;;7.28;4.32;;;;;;;;;;5053478;28;20517;-72
2024/02/16 07:54:11;;;;;;;10.55;4.38;;;;;;;;;;5037090;28;20461;-73
2024/02/16 07:56:59;;;;;;;7.32;3.88;;;;;;;;;;5052046;28;20100;-72
2024/02/16 07:59:45;;;;;;;10.15;4.13;;;;;;;;;;5037181;28;20459;-72
2024/02/16 08:02:30;;;;;;;7.78;4.03;;;;;;;;;;5052357;28;20033;-72
2024/02/16 08:05:18;;;;;;;10.70;4.30;;;;;;;;;;5054176;28;20028;-72
2024/02/16 08:08:04;;;;;;;9.57;4.65;;;;;;;;;;5038416;28;20025;-73
2024/02/16 08:10:51;;;;;;;6.82;4.50;;;;;;;;;;5052674;28;20028;-73
2024/02/16 08:13:36;;;;;;;6.03;4.05;;;;;;;;;;5052692;28;20028;-72
2024/02/16 08:16:26;;;;;;;8.90;4.55;;;;;;;;;;5033281;28;20409;-72
2024/02/16 08:19:13;;;;;;;8.07;4.45;;;;;;;;;;5038639;28;20040;-72
2024/02/16 08:22:03;;;;;;;8.68;3.95;;;;;;;;;;5040146;28;20025;-72
2024/02/16 08:24:49;;;;;;;7.97;4.53;;;;;;;;;;5037810;28;20024;-73
2024/02/16 08:27:35;;;;;;;8.02;4.05;;;;;;;;;;5051881;28;20028;-73
2024/02/16 08:30:21;;;;;;;8.25;4.15;;;;;;;;;;5054452;28;20031;-72
2024/02/16 08:33:07;;;;;;;9.30;4.22;;;;;;;;;;5039086;28;20032;-72
2024/02/16 08:35:53;;;;;;;7.00;4.05;;;;;;;;;;5032047;28;20104;-72
2024/02/16 08:38:39;;;;;;;7.97;4.47;;;;;;;;;;5033510;28;20032;-72
2024/02/16 08:41:24;;;;;;;9.23;4.00;;;;;;;;;;5040135;28;20107;-72
2024/02/16 08:44:10;;;;;;;9.52;4.10;;;;;;;;;;5053026;28;20032;-72
2024/02/16 08:46:56;;;;;;;12.25;4.93;;;;;;;;;;5052438;28;20029;-72
2024/02/16 08:49:42;;;;;;;9.40;4.05;;;;;;;;;;5051458;28;20478;-73
2024/02/16 08:52:27;;;;;;;8.73;4.53;;;;;;;;;;5042917;28;20029;-73
2024/02/16 08:55:13;;;;;;;5.95;4.15;;;;;;;;;;5052331;28;20032;-73
2024/02/16 08:57:59;;;;;;;13.73;4.50;;;;;;;;;;5053669;28;20391;-73
2024/02/16 09:00:45;;;;;;;9.07;3.80;;;;;;;;;;5066565;28;20117;-73
2024/02/16 09:03:38;;;;;;;9.82;4.32;;;;;;;;;;5073198;28;20020;-73
2024/02/16 09:06:23;;;;;;;7.70;3.80;;;;;;;;;;5052463;28;20082;-73
2024/02/16 09:09:10;;;;;;;10.13;4.15;;;;;;;;;;5053847;28;20059;-73
2024/02/16 09:11:59;;;;;;;7.82;3.58;;;;;;;;;;5038329;28;20049;-73
2024/02/16 09:14:44;;;;;;;10.68;4.57;;;;;;;;;;5059261;28;20102;-73
2024/02/16 09:17:30;;;;;;;6.65;4.00;;;;;;;;;;5072943;28;20027;-73
2024/02/16 09:20:16;;;;;;;6.20;3.83;;;;;;;;;;5054947;28;20163;-73
2024/02/16 09:23:03;;;;;;;10.75;4.78;;;;;;;;;;5056375;28;20036;-72
2024/02/16 09:25:50;;;;;;;6.15;3.55;;;;;;;;;;5053288;28;20025;-73
2024/02/16 09:28:41;;;;;;;9.00;4.32;;;;;;;;;;5057567;28;20028;-72
2024/02/16 09:31:26;;;;;;;10.55;4.35;;;;;;;;;;5058533;28;20021;-72
2024/02/16 09:34:12;;;;;;;6.57;4.18;;;;;;;;;;5061279;28;20064;-73
2024/02/16 09:36:58;;;;;;;7.38;3.70;;;;;;;;;;5057225;28;20052;-73
2024/02/16 09:39:44;;;;;;;6.80;3.53;;;;;;;;;;5055976;28;20032;-73
2024/02/16 09:42:29;;;;;;;7.75;3.88;;;;;;;;;;5057056;28;20048;-73
2024/02/16 09:45:15;;;;;;;9.90;4.55;;;;;;;;;;5057513;28;20559;-73
2024/02/16 09:48:02;;;;;;;9.30;4.20;;;;;;;;;;5056368;28;20075;-73
2024/02/16 09:50:50;;;;;;;8.02;4.25;;;;;;;;;;5055972;28;20028;-73
2024/02/16 09:53:35;;;;;;;7.38;4.13;;;;;;;;;;5046952;28;20036;-73
2024/02/16 09:56:22;;;;;;;5.85;3.60;;;;;;;;;;5055238;28;20489;-73
2024/02/16 09:59:08;;;;;;;9.65;4.30;;;;;;;;;;5025958;28;20055;-73
2024/02/16 10:02:03;;;;;;;7.28;4.05;;;;;;;;;;5055693;28;20116;-73
2024/02/16 10:04:49;;;;;;;9.55;3.53;;;;;;;;;;5041786;28;20433;-73
2024/02/16 10:07:35;;;;;;;12.93;4.65;;;;;;;;;;5055894;28;20039;-73
2024/02/16 10:10:25;;;;;;;7.10;3.55;;;;;;;;;;5041264;28;20045;-73
2024/02/16 10:13:11;;;;;;;9.48;4.05;;;;;;;;;;5055909;28;20488;-73
2024/02/16 10:16:09;;;;;;;11.82;4.25;;;;;;;;;;5022028;28;20053;-73
2024/02/16 10:18:56;;;;;;;7.43;4.40;;;;;;;;;;5024619;28;20039;-72
2024/02/16 10:21:43;;;;;;;8.75;3.63;;;;;;;;;;5038992;28;20025;-73
2024/02/16 10:24:28;;;;;;;8.48;3.95;;;;;;;;;;5055715;28;20170;-73
2024/02/16 10:27:17;;;;;;;8.88;4.07;;;;;;;;;;5054926;28;20028;-73
2024/02/16 10:30:09;;;;;;;10.18;4.20;;;;;;;;;;5027093;28;20398;-73
2024/02/16 10:32:55;;;;;;;8.68;4.18;;;;;;;;;;5041360;28;20111;-73
2024/02/16 10:35:44;;;;;;;9.88;4.47;;;;;;;;;;5041150;28;20024;-73
2024/02/16 10:38:30;;;;;;;9.63;5.10;;;;;;;;;;5040140;28;20055;-73
2024/02/16 10:41:16;;;;;;;9.40;3.80;;;;;;;;;;5034738;28;20021;-72
2024/02/16 10:44:03;;;;;;;12.65;6.38;;;;;;;;;;5048005;28;20453;-73
2024/02/16 10:46:51;;;;;;;9.52;4.03;;;;;;;;;;5028951;28;20447;-73
2024/02/16 10:49:37;;;;;;;10.05;5.38;;;;;;;;;;5052919;28;20519;-73
2024/02/16 10:52:22;;;;;;;9.93;3.80;;;;;;;;;;5065805;28;20111;-73
2024/02/16 10:55:08;;;;;;;6.68;3.80;;;;;;;;;;5068262;28;20033;-73
2024/02/16 10:57:56;;;;;;;7.85;4.13;;;;;;;;;;5056583;28;20032;-73
2024/02/16 11:00:55;;;;;;;9.90;4.10;;;;;;;;;;5034225;28;20104;-73
2024/02/16 11:03:41;;;;;;;10.32;4.57;;;;;;;;;;5034694;28;20028;-73
2024/02/16 11:06:26;;;;;;;7.57;4.15;;;;;;;;;;5055376;28;20107;-73
2024/02/16 11:09:26;;;;;;;7.55;3.83;;;;;;;;;;5054074;28;20017;-73
2024/02/16 11:12:15;;;;;;;9.63;4.38;;;;;;;;;;5041211;28;20025;-73
2024/02/16 11:15:00;;;;;;;9.63;4.50;;;;;;;;;;5039705;28;20406;-72
2024/02/16 11:17:48;;;;;;;10.48;4.68;;;;;;;;;;5055119;28;20028;-73
2024/02/16 11:20:39;;;;;;;12.20;4.28;;;;;;;;;;5054215;28;20144;-73
2024/02/16 11:23:29;;;;;;;10.68;5.22;;;;;;;;;;5052940;28;20056;-73
2024/02/16 11:26:17;;;;;;;12.90;5.68;;;;;;;;;;5039812;28;20036;-73
2024/02/16 11:29:02;;;;;;;11.32;4.57;;;;;;;;;;5054617;28;20032;-73
2024/02/16 11:31:48;;;;;;;8.32;4.57;;;;;;;;;;5053974;28;20020;-73
2024/02/16 11:34:34;;;;;;;7.53;4.85;;;;;;;;;;5067712;28;20028;-73
2024/02/16 11:37:20;;;;;;;9.98;4.25;;;;;;;;;;5059725;28;20482;-73
2024/02/16 11:40:08;;;;;;;10.85;4.57;;;;;;;;;;5068884;28;20032;-73
2024/02/16 11:43:02;;;;;;;13.23;5.72;;;;;;;;;;5059442;28;20035;-73
2024/02/16 11:45:48;;;;;;;9.57;4.55;;;;;;;;;;5062662;28;20096;-73
2024/02/16 11:48:34;;;;;;;11.10;6.07;;;;;;;;;;5052913;28;20481;-73
2024/02/16 11:51:20;;;;;;;9.88;4.70;;;;;;;;;;5032846;28;20095;-73
2024/02/16 11:54:09;;;;;;;10.82;5.22;;;;;;;;;;5034507;28;20029;-73
2024/02/16 11:56:54;;;;;;;14.98;5.60;;;;;;;;;;5023669;28;20495;-73
2024/02/16 11:59:40;;;;;;;9.88;5.47;;;;;;;;;;5038945;28;20036;-73
2024/02/16 12:02:26;;;;;;;11.00;4.88;;;;;;;;;;5040853;28;20025;-73
2024/02/16 12:05:14;;;;;;;8.32;5.55;;;;;;;;;;5047429;28;20029;-73
2024/02/16 12:07:59;;;;;;;10.32;5.63;;;;;;;;;;5054665;28;20024;-73
2024/02/16 12:10:49;;;;;;;10.48;5.32;;;;;;;;;;5056567;28;20104;-73
2024/02/16 12:13:34;;;;;;;8.25;5.03;;;;;;;;;;5037720;28;20013;-73
2024/02/16 12:16:20;;;;;;;10.57;6.10;;;;;;;;;;5053619;28;20028;-73
2024/02/16 12:19:07;;;;;;;14.38;6.28;;;;;;;;;;5032433;28;20032;-73
2024/02/16 12:21:58;;;;;;;13.40;5.53;;;;;;;;;;5034005;28;20100;-73
2024/02/16 12:24:48;;;;;;;9.63;5.97;;;;;;;;;;5035150;28;20079;-73
2024/02/16 12:27:34;;;;;;;12.63;6.03;;;;;;;;;;5039235;28;20025;-73
2024/02/16 12:30:19;;;;;;;13.80;5.78;;;;;;;;;;5040017;28;20485;-73
2024/02/16 12:33:06;;;;;;;9.57;5.22;;;;;;;;;;5052647;28;20025;-73
2024/02/16 12:35:52;;;;;;;12.20;6.57;;;;;;;;;;5037724;28;20490;-73
2024/02/16 12:38:40;;;;;;;13.45;6.13;;;;;;;;;;5056512;28;20103;-73
2024/02/16 12:41:26;;;;;;;10.18;5.47;;;;;;;;;;5073552;28;20402;-73
2024/02/16 12:44:11;;;;;;;11.75;6.10;;;;;;;;;;5053205;28;20046;-73
2024/02/16 12:46:57;;;;;;;12.93;7.38;;;;;;;;;;5072255;28;20028;-73
2024/02/16 12:49:43;;;;;;;11.18;5.78;;;;;;;;;;5072304;28;20032;-73
2024/02/16 12:52:28;;;;;;;13.93;6.85;;;;;;;;;;5039307;28;20012;-73
2024/02/16 12:55:15;;;;;;;17.50;5.93;;;;;;;;;;5072728;28;20112;-73
2024/02/16 12:58:01;;;;;;;11.73;6.32;;;;;;;;;;5066627;28;20017;-73
2024/02/16 13:00:47;;;;;;;14.05;6.68;;;;;;;;;;5032228;28;20025;-73
2024/02/16 13:03:37;;;;;;;11.18;6.05;;;;;;;;;;5032003;28;20056;-73
2024/02/16 13:06:23;;;;;;;13.85;6.65;;;;;;;;;;5020147;28;20096;-73
2024/02/16 13:09:09;;;;;;;12.95;6.53;;;;;;;;;;5066086;28;20112;-73
2024/02/16 13:11:54;;;;;;;14.10;6.97;;;;;;;;;;5060660;28;20435;-73
2024/02/16 13:14:40;;;;;;;13.73;7.40;;;;;;;;;;5052627;28;20425;-73
2024/02/16 13:17:26;;;;;;;11.85;6.85;;;;;;;;;;5052670;28;20043;-73
2024/02/16 13:20:13;;;;;;;16.58;7.22;;;;;;;;;;5032132;28;20470;-73
2024/02/16 13:22:59;;;;;;;14.15;6.93;;;;;;;;;;5035030;28;20080;-73
2024/02/16 13:25:45;;;;;;;17.30;7.10;;;;;;;;;;5052812;28;20413;-73
2024/02/16 13:28:31;;;;;;;15.20;8.55;;;;;;;;;;5052819;28;20088;-73
2024/02/16 13:31:16;;;;;;;14.68;7.65;;;;;;;;;;5053309;28;20017;-73
2024/02/16 13:34:02;;;;;;;19.40;8.40;;;;;;;;;;5053497;28;20407;-73
2024/02/16 13:36:48;;;;;;;19.55;8.60;;;;;;;;;;5051905;28;20111;-73
2024/02/16 13:39:33;;;;;;;17.90;8.50;;;;;;;;;;5052957;28;20502;-73
2024/02/16 13:42:19;;;;;;;20.48;7.95;;;;;;;;;;5052718;28;20104;-73
2024/02/16 13:45:06;;;;;;;19.70;9.23;;;;;;;;;;5051244;28;20044;-73
2024/02/16 13:47:52;;;;;;;17.75;8.65;;;;;;;;;;5037927;28;20445;-73
2024/02/16 13:50:40;;;;;;;19.58;9.52;;;;;;;;;;5051935;28;20025;-73
2024/02/16 13:53:26;;;;;;;21.38;8.43;;;;;;;;;;5053683;28;20024;-73
2024/02/16 13:56:11;;;;;;;22.40;9.52;;;;;;;;;;5051598;28;20028;-73
2024/02/16 13:58:57;;;;;;;23.33;9.43;;;;;;;;;;5051220;28;20024;-73
2024/02/16 14:01:45;;;;;;;20.17;10.60;;;;;;;;;;5052775;28;20024;-73
2024/02/16 14:04:31;;;;;;;12.90;7.90;;;;;;;;;;5038705;28;20478;-73
2024/02/16 14:07:17;;;;;;;21.30;8.52;;;;;;;;;;5053261;28;20078;-73
2024/02/16 14:10:03;;;;;;;26.00;10.43;;;;;;;;;;5038142;28;20135;-73
2024/02/16 14:12:49;;;;;;;21.25;9.52;;;;;;;;;;5039982;28;20096;-73
2024/02/16 14:15:34;;;;;;;18.02;8.70;;;;;;;;;;5040752;28;20147;-73
2024/02/16 14:18:20;;;;;;;18.63;7.70;;;;;;;;;;5056420;28;20098;-73
2024/02/16 14:21:06;;;;;;;15.48;7.32;;;;;;;;;;5056144;28;20021;-73
2024/02/16 14:23:52;;;;;;;16.60;7.30;;;;;;;;;;5054005;28;20040;-73
2024/02/16 14:26:37;;;;;;;16.30;6.57;;;;;;;;;;5057446;28;20021;-73
2024/02/16 14:29:23;;;;;;;15.40;6.22;;;;;;;;;;5042172;28;20028;-73
2024/02/16 14:32:12;;;;;;;14.77;6.30;;;;;;;;;;5041258;28;20098;-73
2024/02/16 14:34:57;;;;;;;34.55;18.00;;;;;;;;;;5057082;28;20026;-73
2024/02/16 14:37:43;;;;;;;81.80;41.20;;;;;;;;;;5055539;28;20115;-73
2024/02/16 14:40:28;;;;;;;25.50;14.95;;;;;;;;;;5041141;28;20025;-73
2024/02/16 14:43:14;;;;;;;19.20;6.30;;;;;;;;;;5054655;28;20552;-73
2024/02/16 14:46:00;;;;;;;21.27;12.07;;;;;;;;;;5054228;28;20459;-73
2024/02/16 14:48:48;;;;;;;25.92;14.20;;;;;;;;;;5041689;28;20052;-73
2024/02/16 14:51:34;;;;;;;59.80;31.23;;;;;;;;;;5054550;28;20498;-73
2024/02/16 14:54:20;;;;;;;58.10;24.63;;;;;;;;;;5055146;28;20431;-73
2024/02/16 14:57:06;;;;;;;73.55;33.78;;;;;;;;;;5056397;28;20093;-73
2024/02/16 14:59:56;;;;;;;51.03;26.80;;;;;;;;;;5054549;28;20029;-72
2024/02/16 15:02:42;;;;;;;78.05;38.33;;;;;;;;;;5039780;28;20129;-73
2024/02/16 15:05:28;;;;;;;31.20;14.43;;;;;;;;;;5052343;28;20039;-73
2024/02/16 15:08:14;;;;;;;19.80;10.50;;;;;;;;;;5066094;28;20020;-73
2024/02/16 15:11:01;;;;;;;22.85;13.50;;;;;;;;;;5072910;28;20025;-72
2024/02/16 15:13:48;;;;;;;33.88;22.42;;;;;;;;;;5073938;28;20508;-72
2024/02/16 15:16:34;;;;;;;45.15;27.58;;;;;;;;;;5075014;28;20120;-73
2024/02/16 15:19:20;;;;;;;49.45;26.33;;;;;;;;;;5074725;28;20490;-73
2024/02/16 15:22:06;;;;;;;45.80;24.13;;;;;;;;;;5060008;28;20051;-73
2024/02/16 15:24:54;;;;;;;35.35;17.38;;;;;;;;;;5053684;28;20493;-73
2024/02/16 15:27:40;;;;;;;21.15;13.15;;;;;;;;;;5054465;28;20044;-73
2024/02/16 15:30:25;;;;;;;44.05;27.38;;;;;;;;;;5036611;28;20029;-72
2024/02/16 15:33:11;;;;;;;29.60;14.20;;;;;;;;;;5055234;28;20052;-73
2024/02/16 15:36:02;;;;;;;35.15;18.45;;;;;;;;;;5054659;28;20035;-73
2024/02/16 15:38:48;;;;;;;274.50;99.00;;;;;;;;;;5053137;28;20112;-73
2024/02/16 15:41:34;;;;;;;52.22;41.80;;;;;;;;;;5059231;28;20016;-73
2024/02/16 15:44:19;;;;;;;52.17;32.95;;;;;;;;;;5054435;28;20517;-73
2024/02/16 15:47:05;;;;;;;36.33;21.75;;;;;;;;;;5054635;28;20033;-73
2024/02/16 15:49:51;;;;;;;23.50;16.23;;;;;;;;;;5054307;28;20031;-73
2024/02/16 15:52:36;;;;;;;23.40;15.85;;;;;;;;;;5052986;28;20025;-73
2024/02/16 15:55:22;;;;;;;24.63;16.65;;;;;;;;;;5052619;28;20037;-73
2024/02/16 15:58:09;;;;;;;19.40;6.93;;;;;;;;;;5053050;28;20154;-73
2024/02/16 16:00:55;;;;;;;12.77;6.57;;;;;;;;;;5053505;28;20114;-73
2024/02/16 16:03:40;;;;;;;27.48;15.10;;;;;;;;;;5051426;28;20063;-73
2024/02/16 16:06:26;;;;;;;17.45;8.90;;;;;;;;;;5054306;28;20020;-72
2024/02/16 16:09:12;;;;;;;19.98;11.85;;;;;;;;;;5022890;28;20024;-72
2024/02/16 16:11:57;;;;;;;19.88;7.30;;;;;;;;;;5053319;28;20036;-73
2024/02/16 16:14:43;;;;;;;19.02;7.95;;;;;;;;;;5053359;28;20025;-73
2024/02/16 16:17:29;;;;;;;19.08;9.10;;;;;;;;;;5052838;28;20032;-72
2024/02/16 16:20:15;;;;;;;16.02;8.20;;;;;;;;;;5062384;28;20278;-73
2024/02/16 16:23:01;;;;;;;17.20;9.57;;;;;;;;;;5055604;28;20029;-72